createdAt,value
2023-01-18T00:02:03.691Z,67.13
2023-01-18T00:04:30.305Z,71.00
2023-01-18T00:06:57.316Z,68.13
2023-01-18T00:09:23.821Z,74.57
2023-01-18T00:11:50.330Z,64.57
2023-01-18T00:14:17.069Z,69.00
2023-01-18T00:16:43.582Z,67.37
2023-01-18T00:19:13.098Z,70.43
2023-01-18T00:21:40.570Z,70.03
2023-01-18T00:24:10.991Z,69.50
2023-01-18T00:26:37.987Z,74.07
2023-01-18T00:29:04.924Z,71.37
2023-01-18T00:31:31.739Z,72.83
2023-01-18T00:33:58.576Z,75.33
2023-01-18T00:36:25.078Z,75.80
2023-01-18T00:38:52.528Z,69.53
2023-01-18T00:41:20.855Z,73.27
2023-01-18T00:43:47.311Z,72.53
2023-01-18T00:46:20.044Z,65.40
2023-01-18T00:48:47.112Z,70.53
2023-01-18T00:51:16.271Z,66.20
2023-01-18T00:53:46.137Z,70.53
2023-01-18T00:56:15.566Z,71.10
2023-01-18T00:58:42.475Z,71.43
2023-01-18T01:01:10.044Z,75.17
2023-01-18T01:03:56.148Z,76.50
2023-01-18T01:06:44.539Z,77.40
2023-01-18T01:09:22.018Z,76.83
2023-01-18T01:12:07.879Z,78.37
2023-01-18T01:14:55.909Z,76.03
2023-01-18T01:17:41.392Z,74.93
2023-01-18T01:20:27.441Z,76.07
2023-01-18T01:23:12.306Z,74.73
2023-01-18T01:25:58.142Z,74.53
2023-01-18T01:28:24.933Z,63.33
2023-01-18T01:30:51.583Z,67.93
2023-01-18T01:33:18.677Z,68.33
2023-01-18T01:35:45.515Z,65.50
2023-01-18T01:38:12.037Z,59.67
2023-01-18T01:40:38.537Z,61.43
2023-01-18T01:43:09.795Z,58.67
2023-01-18T01:45:36.461Z,64.80
2023-01-18T01:48:03.325Z,60.63
2023-01-18T01:50:35.890Z,63.17
2023-01-18T01:53:02.906Z,61.77
2023-01-18T01:55:35.150Z,63.57
2023-01-18T01:58:03.790Z,66.60
2023-01-18T02:00:30.885Z,69.80
2023-01-18T02:03:02.182Z,61.83
2023-01-18T02:05:30.017Z,66.03
2023-01-18T02:07:59.883Z,62.23
2023-01-18T02:10:26.779Z,68.80
2023-01-18T02:12:54.879Z,70.03
2023-01-18T02:15:22.979Z,62.40
2023-01-18T02:18:06.188Z,67.33
2023-01-18T02:21:03.232Z,69.20
2023-01-18T02:23:35.233Z,67.37
2023-01-18T02:26:25.079Z,68.23
2023-01-18T02:29:01.464Z,68.30
2023-01-18T02:31:34.512Z,64.73
2023-01-18T02:34:16.535Z,67.00
2023-01-18T02:37:01.267Z,68.37
2023-01-18T02:39:38.423Z,73.20
2023-01-18T02:42:40.302Z,72.90
2023-01-18T02:45:36.044Z,65.83
2023-01-18T02:48:03.304Z,68.13
2023-01-18T02:50:29.854Z,65.80
2023-01-18T02:52:56.723Z,59.10
2023-01-18T02:55:47.917Z,60.93
2023-01-18T02:58:34.253Z,59.30
2023-01-18T03:01:15.431Z,63.63
2023-01-18T03:03:44.376Z,56.97
2023-01-18T03:06:10.879Z,62.17
2023-01-18T03:08:46.553Z,61.30
2023-01-18T03:11:19.183Z,59.50
2023-01-18T03:13:57.880Z,62.80
2023-01-18T03:16:26.205Z,55.87
2023-01-18T03:19:25.677Z,58.37
2023-01-18T03:21:53.229Z,51.97
2023-01-18T03:24:22.887Z,57.07
2023-01-18T03:26:53.190Z,53.73
2023-01-18T03:29:39.639Z,54.83
2023-01-18T03:32:30.364Z,55.50
2023-01-18T03:35:10.877Z,55.20
2023-01-18T03:37:41.016Z,51.13
2023-01-18T03:40:13.570Z,54.87
2023-01-18T03:43:05.579Z,60.83
2023-01-18T03:45:38.909Z,59.37
2023-01-18T03:48:08.149Z,54.60
2023-01-18T03:50:49.942Z,53.30
2023-01-18T03:53:42.157Z,52.00
2023-01-18T03:56:37.805Z,50.70
2023-01-18T03:59:05.508Z,53.00
2023-01-18T04:01:32.158Z,55.53
2023-01-18T04:03:58.706Z,53.97
2023-01-18T04:06:25.817Z,53.60
2023-01-18T04:08:53.157Z,50.77
2023-01-18T04:11:20.234Z,56.90
2023-01-18T04:13:46.746Z,56.30
2023-01-18T04:16:13.453Z,59.90
2023-01-18T04:18:40.043Z,56.10
2023-01-18T04:21:06.497Z,52.27
2023-01-18T04:23:32.968Z,59.13
2023-01-18T04:25:59.510Z,59.60
2023-01-18T04:28:26.101Z,64.40
2023-01-18T04:30:54.080Z,61.50
2023-01-18T04:33:21.669Z,59.03
2023-01-18T04:35:48.584Z,61.60
2023-01-18T04:38:15.833Z,73.20
2023-01-18T04:40:42.751Z,66.10
2023-01-18T04:43:09.371Z,69.90
2023-01-18T04:45:35.876Z,74.70
2023-01-18T04:48:02.311Z,67.97
2023-01-18T04:50:28.875Z,67.47
2023-01-18T04:52:55.726Z,72.93
2023-01-18T04:55:22.827Z,74.27
2023-01-18T04:57:56.778Z,74.07
2023-01-18T05:00:24.161Z,73.40
2023-01-18T05:02:50.995Z,71.63
2023-01-18T05:05:17.814Z,71.57
2023-01-18T05:07:44.312Z,73.17
2023-01-18T05:10:11.170Z,75.23
2023-01-18T05:12:37.930Z,74.97
2023-01-18T05:15:05.859Z,78.00
2023-01-18T05:17:34.612Z,75.03
2023-01-18T05:20:02.070Z,78.27
2023-01-18T05:22:29.154Z,84.40
2023-01-18T05:24:55.777Z,77.00
2023-01-18T05:27:22.394Z,81.27
2023-01-18T05:29:48.890Z,87.13
2023-01-18T05:32:15.435Z,82.13
2023-01-18T05:34:42.332Z,85.67
2023-01-18T05:37:08.772Z,87.00
2023-01-18T05:39:35.216Z,83.40
2023-01-18T05:42:01.729Z,77.00
2023-01-18T05:44:28.255Z,90.20
2023-01-18T05:46:54.733Z,83.43
2023-01-18T05:49:21.207Z,88.30
2023-01-18T05:51:47.734Z,82.77
2023-01-18T05:54:14.282Z,79.93
2023-01-18T05:56:42.248Z,84.83
2023-01-18T05:59:09.063Z,78.80
2023-01-18T06:01:35.602Z,77.17
2023-01-18T06:04:02.149Z,73.73
2023-01-18T06:06:28.794Z,78.60
2023-01-18T06:08:55.354Z,72.27
2023-01-18T06:11:22.015Z,77.13
2023-01-18T06:13:48.624Z,72.43
2023-01-18T06:16:15.262Z,73.27
2023-01-18T06:18:42.024Z,72.77
2023-01-18T06:21:10.769Z,74.73
2023-01-18T06:23:37.844Z,69.90
2023-01-18T06:26:04.570Z,79.00
2023-01-18T06:28:31.141Z,71.77
2023-01-18T06:30:58.091Z,70.30
2023-01-18T06:33:25.207Z,78.53
2023-01-18T06:35:52.242Z,68.83
2023-01-18T06:38:19.984Z,71.20
2023-01-18T06:40:46.500Z,69.13
2023-01-18T06:43:14.296Z,70.10
2023-01-18T06:45:41.372Z,71.80
2023-01-18T06:48:08.256Z,58.07
2023-01-18T06:50:34.700Z,59.27
2023-01-18T06:53:01.499Z,48.67
2023-01-18T06:55:28.155Z,54.50
2023-01-18T06:57:56.217Z,52.83
2023-01-18T07:00:23.588Z,60.70
2023-01-18T07:02:52.811Z,53.27
2023-01-18T07:05:22.931Z,53.47
2023-01-18T07:07:49.468Z,54.13
2023-01-18T07:10:16.910Z,47.97
2023-01-18T07:12:47.419Z,46.50
2023-01-18T07:15:21.607Z,48.47
2023-01-18T07:17:50.322Z,44.80
2023-01-18T07:20:17.106Z,48.57
2023-01-18T07:22:43.610Z,46.83
2023-01-18T07:25:13.262Z,43.90
2023-01-18T07:27:43.545Z,38.73
2023-01-18T07:30:13.520Z,35.43
2023-01-18T07:32:40.614Z,45.73
2023-01-18T07:35:07.402Z,40.67
2023-01-18T07:37:34.151Z,43.87
2023-01-18T07:40:00.709Z,35.77
2023-01-18T07:42:27.224Z,37.93
2023-01-18T07:44:53.960Z,41.63
2023-01-18T07:47:21.081Z,41.03
2023-01-18T07:49:47.547Z,40.50
2023-01-18T07:52:14.033Z,34.80
2023-01-18T07:54:40.543Z,38.17
2023-01-18T07:57:07.032Z,40.90
2023-01-18T07:59:33.813Z,36.77
2023-01-18T08:02:00.444Z,35.37
2023-01-18T08:04:27.018Z,39.57
2023-01-18T08:06:53.693Z,37.87
2023-01-18T08:09:22.867Z,32.80
2023-01-18T08:11:49.385Z,33.43
2023-01-18T08:14:16.408Z,34.73
2023-01-18T08:16:43.291Z,39.77
2023-01-18T08:19:09.940Z,36.30
2023-01-18T08:21:36.567Z,34.43
2023-01-18T08:24:03.625Z,31.23
2023-01-18T08:26:30.285Z,31.33
2023-01-18T08:28:57.557Z,36.57
2023-01-18T08:31:24.176Z,33.83
2023-01-18T08:33:51.017Z,34.17
2023-01-18T08:36:22.789Z,38.50
2023-01-18T08:38:51.071Z,34.47
2023-01-18T08:41:19.122Z,32.07
2023-01-18T08:43:50.563Z,32.17
2023-01-18T08:46:17.493Z,28.10
2023-01-18T08:48:44.191Z,30.73
2023-01-18T08:51:10.895Z,29.37
2023-01-18T08:53:37.518Z,29.43
2023-01-18T08:56:06.326Z,28.90
2023-01-18T08:58:33.182Z,32.43
2023-01-18T09:00:59.803Z,32.10
2023-01-18T09:03:26.458Z,31.30
2023-01-18T09:05:52.964Z,28.40
2023-01-18T09:08:22.786Z,29.57
2023-01-18T09:10:49.586Z,31.57
2023-01-18T09:13:16.056Z,34.63
2023-01-18T09:15:42.873Z,29.90
2023-01-18T09:18:09.693Z,35.77
2023-01-18T09:20:36.408Z,31.83
2023-01-18T09:23:10.173Z,31.10
2023-01-18T09:25:37.196Z,36.20
2023-01-18T09:28:04.825Z,31.87
2023-01-18T09:30:31.448Z,33.67
2023-01-18T09:32:58.823Z,28.63
2023-01-18T09:35:25.587Z,32.93
2023-01-18T09:37:52.332Z,31.87
2023-01-18T09:40:20.757Z,28.23
2023-01-18T09:42:49.503Z,24.50
2023-01-18T09:45:31.952Z,24.77
2023-01-18T09:48:05.242Z,27.23
2023-01-18T09:50:42.810Z,25.07
2023-01-18T09:53:57.653Z,26.40
2023-01-18T09:56:27.752Z,24.80
2023-01-18T09:59:15.584Z,30.50
2023-01-18T10:01:42.281Z,23.27
2023-01-18T10:04:24.549Z,22.47
2023-01-18T10:07:02.947Z,20.07
2023-01-18T10:09:38.883Z,20.60
2023-01-18T10:12:31.780Z,19.43
2023-01-18T10:15:04.677Z,21.17
2023-01-18T10:17:35.832Z,19.80
2023-01-18T10:20:14.665Z,23.20
2023-01-18T10:23:09.408Z,23.07
2023-01-18T10:25:52.484Z,21.73
2023-01-18T10:28:27.764Z,24.17
2023-01-18T10:31:03.745Z,18.80
2023-01-18T10:33:36.481Z,20.97
2023-01-18T10:36:11.827Z,19.73
2023-01-18T10:38:40.858Z,20.13
2023-01-18T10:41:18.999Z,20.20
2023-01-18T10:43:45.841Z,19.73
2023-01-18T10:46:17.261Z,20.27
2023-01-18T10:48:49.490Z,18.60
2023-01-18T10:51:37.596Z,17.47
2023-01-18T10:54:23.382Z,19.37
2023-01-18T10:57:01.912Z,20.43
2023-01-18T10:59:35.832Z,23.40
2023-01-18T11:02:03.071Z,22.73
2023-01-18T11:04:31.647Z,25.83
2023-01-18T11:07:02.294Z,22.30
2023-01-18T11:09:40.923Z,19.90
2023-01-18T11:12:43.507Z,20.80
2023-01-18T11:15:15.730Z,17.00
2023-01-18T11:18:00.395Z,21.83
2023-01-18T11:20:46.289Z,18.60
2023-01-18T11:23:25.578Z,20.70
2023-01-18T11:26:05.884Z,20.93
2023-01-18T11:28:59.096Z,22.27
2023-01-18T11:31:29.285Z,26.07
2023-01-18T11:33:58.281Z,19.70
2023-01-18T11:36:35.588Z,20.20
2023-01-18T11:39:29.984Z,21.27
2023-01-18T11:42:20.245Z,20.10
2023-01-18T11:45:09.978Z,19.50
2023-01-18T11:47:45.500Z,20.27
2023-01-18T11:50:28.382Z,20.60
2023-01-18T11:53:15.110Z,20.83
2023-01-18T11:55:47.620Z,25.10
2023-01-18T11:58:28.623Z,20.43
2023-01-18T12:01:34.117Z,17.73
2023-01-18T12:04:14.388Z,18.90
2023-01-18T12:07:05.340Z,16.73
2023-01-18T12:09:34.777Z,17.07
2023-01-18T12:12:18.594Z,16.40
2023-01-18T12:15:05.388Z,17.80
2023-01-18T12:17:45.813Z,16.43
2023-01-18T12:20:38.529Z,17.23
2023-01-18T12:23:22.578Z,20.60
2023-01-18T12:26:11.666Z,18.10
2023-01-18T12:28:57.547Z,20.37
2023-01-18T12:31:56.917Z,12.47
2023-01-18T12:34:30.495Z,17.30
2023-01-18T12:37:22.750Z,15.13
2023-01-18T12:40:01.365Z,15.60
2023-01-18T12:42:37.520Z,17.17
2023-01-18T12:45:17.701Z,17.63
2023-01-18T12:48:05.257Z,14.83
2023-01-18T12:50:34.396Z,13.37
2023-01-18T12:53:05.417Z,16.27
2023-01-18T12:55:33.496Z,11.47
2023-01-18T12:58:00.962Z,13.40
2023-01-18T13:00:36.852Z,13.20
2023-01-18T13:03:15.055Z,15.23
2023-01-18T13:05:58.093Z,13.70
2023-01-18T13:08:30.617Z,18.23
2023-01-18T13:11:06.978Z,15.23
2023-01-18T13:13:40.982Z,16.10
2023-01-18T13:16:29.332Z,13.60
2023-01-18T13:19:00.523Z,16.70
2023-01-18T13:22:01.074Z,15.17
2023-01-18T13:24:39.839Z,19.63
2023-01-18T13:27:11.946Z,16.03
2023-01-18T13:29:39.364Z,19.63
2023-01-18T13:32:24.551Z,20.87
2023-01-18T13:35:17.962Z,18.43
2023-01-18T13:37:56.345Z,17.63
2023-01-18T13:40:24.928Z,18.17
2023-01-18T13:42:51.666Z,18.37
2023-01-18T13:45:21.886Z,18.80
2023-01-18T13:48:00.942Z,20.07
2023-01-18T13:50:38.312Z,31.37
2023-01-18T13:53:13.974Z,24.13
2023-01-18T13:55:42.003Z,27.53
2023-01-18T13:58:38.655Z,30.57
2023-01-18T14:01:07.151Z,31.27
2023-01-18T14:03:36.603Z,32.00
2023-01-18T14:06:10.177Z,28.53
2023-01-18T14:08:39.880Z,33.40
2023-01-18T14:11:09.718Z,28.43
2023-01-18T14:13:45.391Z,29.43
2023-01-18T14:16:26.123Z,25.67
2023-01-18T14:19:03.120Z,17.23
2023-01-18T14:22:07.706Z,23.73
2023-01-18T14:24:50.054Z,22.67
2023-01-18T14:27:20.584Z,20.57
2023-01-18T14:29:48.465Z,17.73
2023-01-18T14:32:23.235Z,17.90
2023-01-18T14:35:25.990Z,20.00
2023-01-18T14:37:54.088Z,21.43
2023-01-18T14:40:28.258Z,18.77
2023-01-18T14:43:10.279Z,21.43
2023-01-18T14:45:39.082Z,22.13
2023-01-18T14:48:10.887Z,20.30
2023-01-18T14:50:42.129Z,20.60
2023-01-18T14:53:20.151Z,20.53
2023-01-18T14:56:06.591Z,22.57
2023-01-18T14:58:36.632Z,17.13
2023-01-18T15:01:04.033Z,14.93
2023-01-18T15:03:32.048Z,16.10
2023-01-18T15:06:08.453Z,16.63
2023-01-18T15:08:35.712Z,17.63
2023-01-18T15:11:05.041Z,19.50
2023-01-18T15:13:33.007Z,21.77
2023-01-18T15:16:02.829Z,22.80
2023-01-18T15:18:29.875Z,23.50
2023-01-18T15:20:59.298Z,25.53
2023-01-18T15:23:27.223Z,23.67
2023-01-18T15:25:54.479Z,23.33
2023-01-18T15:28:23.990Z,22.30
2023-01-18T15:30:53.189Z,24.37
2023-01-18T15:33:22.377Z,25.47
2023-01-18T15:35:53.128Z,23.47
2023-01-18T15:38:22.766Z,24.90
2023-01-18T15:40:57.191Z,28.03
2023-01-18T15:43:28.303Z,32.30
2023-01-18T15:45:56.047Z,34.20
2023-01-18T15:48:23.496Z,34.23
2023-01-18T15:50:52.641Z,32.40
2023-01-18T15:53:29.189Z,31.47
2023-01-18T15:56:03.856Z,32.73
2023-01-18T15:58:34.834Z,29.97
2023-01-18T16:01:10.769Z,29.50
2023-01-18T16:03:41.479Z,33.23
2023-01-18T16:06:11.447Z,36.17
2023-01-18T16:09:10.625Z,37.83
2023-01-18T16:11:41.569Z,36.30
2023-01-18T16:14:30.906Z,40.67
2023-01-18T16:17:15.475Z,38.70
2023-01-18T16:19:55.571Z,41.53
2023-01-18T16:22:28.835Z,42.03
2023-01-18T16:25:08.950Z,44.00
2023-01-18T16:27:55.926Z,41.33
2023-01-18T16:30:26.009Z,45.47
2023-01-18T16:32:52.835Z,43.13
2023-01-18T16:35:21.402Z,48.77
2023-01-18T16:37:48.291Z,52.03
2023-01-18T16:40:17.087Z,52.27
2023-01-18T16:43:20.357Z,50.10
2023-01-18T16:45:49.709Z,50.20
2023-01-18T16:48:20.245Z,58.30
2023-01-18T16:50:47.466Z,55.93
2023-01-18T16:53:14.194Z,59.80
2023-01-18T16:55:43.947Z,60.83
2023-01-18T16:58:14.097Z,58.43
2023-01-18T17:01:00.146Z,62.97
2023-01-18T17:03:27.781Z,61.90
2023-01-18T17:05:55.282Z,57.90
2023-01-18T17:08:21.784Z,63.67
2023-01-18T17:10:50.162Z,62.43
2023-01-18T17:13:17.177Z,65.17
2023-01-18T17:15:45.457Z,72.77
2023-01-18T17:18:16.951Z,69.80
2023-01-18T17:20:44.087Z,65.93
2023-01-18T17:23:10.855Z,66.23
2023-01-18T17:25:37.903Z,62.97
2023-01-18T17:28:04.811Z,64.93
2023-01-18T17:30:32.708Z,69.60
2023-01-18T17:32:59.772Z,69.50
2023-01-18T17:35:28.506Z,70.17
2023-01-18T17:38:01.029Z,65.70
2023-01-18T17:40:41.920Z,73.77
2023-01-18T17:43:15.210Z,73.37
2023-01-18T17:45:48.416Z,73.37
2023-01-18T17:48:20.161Z,66.70
2023-01-18T17:50:46.944Z,73.30
2023-01-18T17:53:13.503Z,77.07
2023-01-18T17:55:40.533Z,72.53
2023-01-18T17:58:07.254Z,75.80
2023-01-18T18:00:33.803Z,78.90
2023-01-18T18:03:02.163Z,72.40
2023-01-18T18:05:28.957Z,75.33
2023-01-18T18:07:55.451Z,75.87
2023-01-18T18:10:21.981Z,74.90
2023-01-18T18:12:48.692Z,81.67
2023-01-18T18:15:15.360Z,71.70
2023-01-18T18:17:41.970Z,81.93
2023-01-18T18:20:10.858Z,76.47
2023-01-18T18:22:37.897Z,81.10
2023-01-18T18:25:06.589Z,80.53
2023-01-18T18:27:44.859Z,80.03
2023-01-18T18:30:13.007Z,78.73
2023-01-18T18:32:39.913Z,82.63
2023-01-18T18:35:23.273Z,77.17
2023-01-18T18:37:51.685Z,82.97
2023-01-18T18:40:19.290Z,79.60
2023-01-18T18:43:00.763Z,81.53
2023-01-18T18:45:30.202Z,87.73
2023-01-18T18:47:56.698Z,93.13
2023-01-18T18:50:23.208Z,93.77
2023-01-18T18:52:49.946Z,89.60
2023-01-18T18:55:16.574Z,89.93
2023-01-18T18:57:43.108Z,93.43
2023-01-18T19:00:10.421Z,91.77
2023-01-18T19:02:37.151Z,92.23
2023-01-18T19:05:04.215Z,94.33
2023-01-18T19:07:31.049Z,92.50
2023-01-18T19:09:57.563Z,102.57
2023-01-18T19:12:24.155Z,102.07
2023-01-18T19:14:50.791Z,101.73
2023-01-18T19:17:28.987Z,98.03
2023-01-18T19:19:56.567Z,110.33
2023-01-18T19:22:23.205Z,99.60
2023-01-18T19:24:49.846Z,105.23
2023-01-18T19:27:16.721Z,106.83
2023-01-18T19:29:43.290Z,112.93
2023-01-18T19:32:10.090Z,103.20
2023-01-18T19:34:38.687Z,114.70
2023-01-18T19:37:05.473Z,106.33
2023-01-18T19:39:34.799Z,114.23
2023-01-18T19:42:01.945Z,102.97
2023-01-18T19:44:28.512Z,109.27
2023-01-18T19:46:57.987Z,101.47
2023-01-18T19:49:26.224Z,102.40
2023-01-18T19:51:54.692Z,102.70
2023-01-18T19:54:22.094Z,96.23
2023-01-18T19:56:49.143Z,101.43
2023-01-18T19:59:15.824Z,93.57
2023-01-18T20:01:42.640Z,98.30
2023-01-18T20:04:09.856Z,94.40
2023-01-18T20:06:39.787Z,104.00
2023-01-18T20:09:17.861Z,89.97
2023-01-18T20:11:45.202Z,88.80
2023-01-18T20:14:11.941Z,85.93
2023-01-18T20:16:38.580Z,88.60
2023-01-18T20:19:05.509Z,87.27
2023-01-18T20:21:32.103Z,84.30
2023-01-18T20:23:59.132Z,81.60
2023-01-18T20:26:35.824Z,81.63
2023-01-18T20:29:07.145Z,81.07
2023-01-18T20:31:36.038Z,83.40
2023-01-18T20:34:08.955Z,81.57
2023-01-18T20:36:36.923Z,84.03
2023-01-18T20:39:04.603Z,82.20
2023-01-18T20:41:31.368Z,75.30
2023-01-18T20:43:58.254Z,80.70
2023-01-18T20:46:24.821Z,71.87
2023-01-18T20:48:51.388Z,73.90
2023-01-18T20:51:18.322Z,76.73
2023-01-18T20:53:45.906Z,74.07
2023-01-18T20:56:27.915Z,79.27
2023-01-18T20:58:55.656Z,72.53
2023-01-18T21:01:22.426Z,82.57
2023-01-18T21:03:54.349Z,76.97
2023-01-18T21:06:21.526Z,77.77
2023-01-18T21:08:48.139Z,84.57
2023-01-18T21:11:16.873Z,79.67
2023-01-18T21:13:43.765Z,73.07
2023-01-18T21:16:10.424Z,79.97
2023-01-18T21:18:37.662Z,79.13
2023-01-18T21:21:04.766Z,73.70
2023-01-18T21:23:38.011Z,81.47
2023-01-18T21:26:05.585Z,81.23
2023-01-18T21:28:32.069Z,79.13
2023-01-18T21:30:58.564Z,76.27
2023-01-18T21:33:25.635Z,77.23
2023-01-18T21:35:55.372Z,71.90
2023-01-18T21:38:25.667Z,72.83
2023-01-18T21:40:52.249Z,77.73
2023-01-18T21:43:38.837Z,70.43
2023-01-18T21:46:07.665Z,74.07
2023-01-18T21:48:34.135Z,75.07
2023-01-18T21:51:21.082Z,72.97
2023-01-18T21:54:06.456Z,69.27
2023-01-18T21:56:33.085Z,77.10
2023-01-18T21:59:01.023Z,65.67
2023-01-18T22:01:37.767Z,68.80
2023-01-18T22:04:28.657Z,72.27
2023-01-18T22:06:59.085Z,68.43
2023-01-18T22:09:30.005Z,69.83
2023-01-18T22:11:57.301Z,77.53
2023-01-18T22:14:24.341Z,75.03
2023-01-18T22:16:50.842Z,68.70
2023-01-18T22:19:19.761Z,72.50
2023-01-18T22:21:46.639Z,74.33
2023-01-18T22:24:13.810Z,75.07
2023-01-18T22:26:41.239Z,69.07
2023-01-18T22:29:08.302Z,66.97
2023-01-18T22:31:35.002Z,67.77
2023-01-18T22:34:04.390Z,66.17
2023-01-18T22:36:31.754Z,66.37
2023-01-18T22:38:58.212Z,74.53
2023-01-18T22:41:27.057Z,69.57
2023-01-18T22:43:54.562Z,68.37
2023-01-18T22:46:22.165Z,66.47
2023-01-18T22:48:48.749Z,70.97
2023-01-18T22:51:17.105Z,66.97
2023-01-18T22:53:44.503Z,69.70
2023-01-18T22:56:24.591Z,69.50
2023-01-18T22:58:51.980Z,73.13
2023-01-18T23:01:25.800Z,77.87
2023-01-18T23:03:55.014Z,67.63
2023-01-18T23:06:21.627Z,68.27
2023-01-18T23:08:48.636Z,68.63
2023-01-18T23:11:17.931Z,69.63
2023-01-18T23:14:19.675Z,71.17
2023-01-18T23:17:04.632Z,67.87
2023-01-18T23:19:31.250Z,71.67
2023-01-18T23:21:58.033Z,72.47
2023-01-18T23:24:25.303Z,72.93
2023-01-18T23:26:52.507Z,73.10
2023-01-18T23:29:19.940Z,69.17
2023-01-18T23:31:46.771Z,73.10
2023-01-18T23:34:21.996Z,65.37
2023-01-18T23:36:48.571Z,74.77
2023-01-18T23:39:33.389Z,68.43
2023-01-18T23:42:18.809Z,75.80
2023-01-18T23:45:04.610Z,68.23
2023-01-18T23:47:49.367Z,74.97
2023-01-18T23:50:34.847Z,70.70
2023-01-18T23:53:20.424Z,64.83
2023-01-18T23:55:47.012Z,70.33
2023-01-18T23:58:13.520Z,76.57
